sensor_id;sensor_type;location;lat;lon;timestamp;pressure;altitude;pressure_sealevel;temperature;humidity
34506;BME280;20748;42.632;23.198;2022-08-19T00:01:57;91935.88;;;19.42;75.38
34506;BME280;20748;42.632;23.198;2022-08-19T00:04:32;91950.69;;;19.47;75.68
34506;BME280;20748;42.632;23.198;2022-08-19T00:07:07;91954.84;;;19.48;75.71
34506;BME280;20748;42.632;23.198;2022-08-19T00:09:40;91955.91;;;19.43;75.40
34506;BME280;20748;42.632;23.198;2022-08-19T00:12:13;91946.69;;;19.33;75.72
34506;BME280;20748;42.632;23.198;2022-08-19T00:14:45;91956.03;;;19.27;75.69
34506;BME280;20748;42.632;23.198;2022-08-19T00:17:18;91959.09;;;19.29;76.71
34506;BME280;20748;42.632;23.198;2022-08-19T00:19:50;91961.97;;;19.20;77.49
34506;BME280;20748;42.632;23.198;2022-08-19T00:22:23;91976.25;;;19.15;77.89
34506;BME280;20748;42.632;23.198;2022-08-19T00:24:56;91966.84;;;19.18;77.83
34506;BME280;20748;42.632;23.198;2022-08-19T00:27:29;91970.06;;;19.08;78.17
34506;BME280;20748;42.632;23.198;2022-08-19T00:30:01;91964.78;;;19.08;77.83
34506;BME280;20748;42.632;23.198;2022-08-19T00:32:35;91958.66;;;19.03;77.98
34506;BME280;20748;42.632;23.198;2022-08-19T00:35:08;91959.16;;;19.09;78.23
34506;BME280;20748;42.632;23.198;2022-08-19T00:37:41;91959.50;;;19.08;78.10
34506;BME280;20748;42.632;23.198;2022-08-19T00:40:16;91953.25;;;18.96;78.29
34506;BME280;20748;42.632;23.198;2022-08-19T00:42:49;91954.41;;;18.99;78.21
34506;BME280;20748;42.632;23.198;2022-08-19T00:45:28;91954.34;;;18.95;78.13
34506;BME280;20748;42.632;23.198;2022-08-19T00:48:08;91958.13;;;18.94;77.90
34506;BME280;20748;42.632;23.198;2022-08-19T00:50:48;91949.41;;;18.94;77.25
34506;BME280;20748;42.632;23.198;2022-08-19T00:53:26;91953.88;;;18.89;77.21
34506;BME280;20748;42.632;23.198;2022-08-19T00:56:01;91950.41;;;18.85;77.87
34506;BME280;20748;42.632;23.198;2022-08-19T00:58:35;91950.41;;;18.85;78.08
34506;BME280;20748;42.632;23.198;2022-08-19T01:01:08;91948.47;;;18.82;78.31
34506;BME280;20748;42.632;23.198;2022-08-19T01:03:43;91945.81;;;18.82;78.39
34506;BME280;20748;42.632;23.198;2022-08-19T01:06:30;91947.63;;;18.78;78.56
34506;BME280;20748;42.632;23.198;2022-08-19T01:09:04;91942.22;;;18.71;78.71
34506;BME280;20748;42.632;23.198;2022-08-19T01:11:40;91943.69;;;18.68;78.20
34506;BME280;20748;42.632;23.198;2022-08-19T01:14:15;91929.03;;;18.51;78.48
34506;BME280;20748;42.632;23.198;2022-08-19T01:16:49;91937.16;;;18.62;78.22
34506;BME280;20748;42.632;23.198;2022-08-19T01:19:29;91938.28;;;18.61;78.43
34506;BME280;20748;42.632;23.198;2022-08-19T01:22:20;91935.63;;;18.61;78.21
34506;BME280;20748;42.632;23.198;2022-08-19T01:25:02;91940.19;;;18.64;78.15
34506;BME280;20748;42.632;23.198;2022-08-19T01:27:47;91933.41;;;18.63;78.25
34506;BME280;20748;42.632;23.198;2022-08-19T01:30:22;91939.50;;;18.67;78.31
34506;BME280;20748;42.632;23.198;2022-08-19T01:32:56;91940.13;;;18.60;78.40
34506;BME280;20748;42.632;23.198;2022-08-19T01:35:30;91938.09;;;18.50;78.70
34506;BME280;20748;42.632;23.198;2022-08-19T01:38:06;91933.28;;;18.56;78.51
34506;BME280;20748;42.632;23.198;2022-08-19T01:40:40;91929.09;;;18.55;78.28
34506;BME280;20748;42.632;23.198;2022-08-19T01:43:13;91935.50;;;18.54;78.49
34506;BME280;20748;42.632;23.198;2022-08-19T01:45:46;91937.78;;;18.55;78.74
34506;BME280;20748;42.632;23.198;2022-08-19T01:48:19;91948.16;;;18.44;78.85
34506;BME280;20748;42.632;23.198;2022-08-19T01:50:51;91944.59;;;18.36;79.21
34506;BME280;20748;42.632;23.198;2022-08-19T01:53:24;91936.00;;;18.40;79.26
34506;BME280;20748;42.632;23.198;2022-08-19T01:56:04;91945.31;;;18.33;79.85
34506;BME280;20748;42.632;23.198;2022-08-19T01:58:39;91941.41;;;18.27;80.14
34506;BME280;20748;42.632;23.198;2022-08-19T02:01:13;91944.06;;;18.27;80.38
34506;BME280;20748;42.632;23.198;2022-08-19T02:03:46;91944.13;;;18.31;80.62
34506;BME280;20748;42.632;23.198;2022-08-19T02:06:19;91944.47;;;18.29;80.64
34506;BME280;20748;42.632;23.198;2022-08-19T02:08:58;91939.47;;;18.24;80.66
34506;BME280;20748;42.632;23.198;2022-08-19T02:11:33;91937.88;;;18.19;80.77
34506;BME280;20748;42.632;23.198;2022-08-19T02:14:07;91943.63;;;18.25;80.76
34506;BME280;20748;42.632;23.198;2022-08-19T02:16:40;91940.16;;;18.21;80.80
34506;BME280;20748;42.632;23.198;2022-08-19T02:19:12;91942.66;;;18.14;81.19
34506;BME280;20748;42.632;23.198;2022-08-19T02:21:45;91943.00;;;18.12;81.30
34506;BME280;20748;42.632;23.198;2022-08-19T02:24:18;91939.13;;;18.06;81.35
34506;BME280;20748;42.632;23.198;2022-08-19T02:26:51;91925.50;;;17.88;81.75
34506;BME280;20748;42.632;23.198;2022-08-19T02:29:23;91937.31;;;17.94;82.02
34506;BME280;20748;42.632;23.198;2022-08-19T02:31:56;91939.19;;;17.93;82.15
34506;BME280;20748;42.632;23.198;2022-08-19T02:34:28;91942.34;;;17.99;82.07
34506;BME280;20748;42.632;23.198;2022-08-19T02:37:01;91935.88;;;17.96;81.95
34506;BME280;20748;42.632;23.198;2022-08-19T02:39:35;91927.94;;;17.96;81.38
34506;BME280;20748;42.632;23.198;2022-08-19T02:42:08;91929.13;;;17.99;81.73
34506;BME280;20748;42.632;23.198;2022-08-19T02:44:40;91923.28;;;17.90;81.83
34506;BME280;20748;42.632;23.198;2022-08-19T02:47:13;91922.53;;;17.89;81.58
34506;BME280;20748;42.632;23.198;2022-08-19T02:49:46;91926.97;;;17.85;81.86
34506;BME280;20748;42.632;23.198;2022-08-19T02:52:21;91925.44;;;17.84;81.92
34506;BME280;20748;42.632;23.198;2022-08-19T02:54:55;91925.69;;;17.79;82.05
34506;BME280;20748;42.632;23.198;2022-08-19T02:57:31;91924.84;;;17.75;82.71
34506;BME280;20748;42.632;23.198;2022-08-19T03:00:05;91923.06;;;17.79;82.64
34506;BME280;20748;42.632;23.198;2022-08-19T03:02:38;91928.94;;;17.72;82.44
34506;BME280;20748;42.632;23.198;2022-08-19T03:05:10;91925.97;;;17.74;82.73
34506;BME280;20748;42.632;23.198;2022-08-19T03:07:43;91930.38;;;17.69;83.19
34506;BME280;20748;42.632;23.198;2022-08-19T03:10:15;91921.72;;;17.69;83.25
34506;BME280;20748;42.632;23.198;2022-08-19T03:12:48;91922.31;;;17.62;83.29
34506;BME280;20748;42.632;23.198;2022-08-19T03:15:21;91923.03;;;17.59;83.50
34506;BME280;20748;42.632;23.198;2022-08-19T03:17:53;91919.34;;;17.64;83.40
34506;BME280;20748;42.632;23.198;2022-08-19T03:20:26;91925.94;;;17.54;83.49
34506;BME280;20748;42.632;23.198;2022-08-19T03:22:58;91929.81;;;17.60;83.54
34506;BME280;20748;42.632;23.198;2022-08-19T03:25:30;91929.25;;;17.51;83.67
34506;BME280;20748;42.632;23.198;2022-08-19T03:28:09;91940.56;;;17.51;83.38
34506;BME280;20748;42.632;23.198;2022-08-19T03:30:54;91931.94;;;17.54;83.42
34506;BME280;20748;42.632;23.198;2022-08-19T03:33:29;91924.31;;;17.49;83.49
34506;BME280;20748;42.632;23.198;2022-08-19T03:36:06;91937.84;;;17.48;83.91
34506;BME280;20748;42.632;23.198;2022-08-19T03:38:42;91938.84;;;17.43;84.26
34506;BME280;20748;42.632;23.198;2022-08-19T03:41:16;91944.66;;;17.49;84.01
34506;BME280;20748;42.632;23.198;2022-08-19T03:43:51;91941.16;;;17.44;84.44
34506;BME280;20748;42.632;23.198;2022-08-19T03:46:27;91954.50;;;17.52;83.88
34506;BME280;20748;42.632;23.198;2022-08-19T03:49:03;91960.13;;;17.50;83.99
34506;BME280;20748;42.632;23.198;2022-08-19T03:51:39;91955.97;;;17.49;83.78
34506;BME280;20748;42.632;23.198;2022-08-19T03:54:13;91968.78;;;17.51;83.76
34506;BME280;20748;42.632;23.198;2022-08-19T03:56:48;91958.63;;;17.49;83.93
34506;BME280;20748;42.632;23.198;2022-08-19T03:59:24;91957.91;;;17.52;83.80
34506;BME280;20748;42.632;23.198;2022-08-19T04:02:00;91967.59;;;17.48;84.03
34506;BME280;20748;42.632;23.198;2022-08-19T04:04:32;91966.09;;;17.47;83.77
34506;BME280;20748;42.632;23.198;2022-08-19T04:07:05;91970.16;;;17.44;84.07
34506;BME280;20748;42.632;23.198;2022-08-19T04:09:38;91968.06;;;17.50;84.26
34506;BME280;20748;42.632;23.198;2022-08-19T04:12:10;91962.69;;;17.47;84.34
34506;BME280;20748;42.632;23.198;2022-08-19T04:14:44;91970.94;;;17.45;84.16
34506;BME280;20748;42.632;23.198;2022-08-19T04:17:16;91970.41;;;17.39;84.62
34506;BME280;20748;42.632;23.198;2022-08-19T04:19:48;91975.59;;;17.36;84.63
34506;BME280;20748;42.632;23.198;2022-08-19T04:22:21;91979.88;;;17.40;84.46
34506;BME280;20748;42.632;23.198;2022-08-19T04:24:53;91982.59;;;17.44;83.89
34506;BME280;20748;42.632;23.198;2022-08-19T04:27:26;91981.81;;;17.43;83.76
34506;BME280;20748;42.632;23.198;2022-08-19T04:29:59;91982.44;;;17.53;84.10
34506;BME280;20748;42.632;23.198;2022-08-19T04:32:31;91977.66;;;17.58;83.42
34506;BME280;20748;42.632;23.198;2022-08-19T04:35:04;91980.03;;;17.64;83.51
34506;BME280;20748;42.632;23.198;2022-08-19T04:37:50;91973.38;;;17.70;83.04
34506;BME280;20748;42.632;23.198;2022-08-19T04:40:23;91976.88;;;17.74;84.16
34506;BME280;20748;42.632;23.198;2022-08-19T04:43:13;91985.03;;;17.69;84.55
34506;BME280;20748;42.632;23.198;2022-08-19T04:45:48;91976.44;;;17.72;83.97
34506;BME280;20748;42.632;23.198;2022-08-19T04:48:24;91976.44;;;17.72;83.79
34506;BME280;20748;42.632;23.198;2022-08-19T04:50:59;91981.53;;;17.81;84.47
34506;BME280;20748;42.632;23.198;2022-08-19T04:53:33;91970.91;;;17.77;85.27
34506;BME280;20748;42.632;23.198;2022-08-19T04:56:11;91981.25;;;17.86;84.71
34506;BME280;20748;42.632;23.198;2022-08-19T04:58:45;91979.97;;;17.96;83.75
34506;BME280;20748;42.632;23.198;2022-08-19T05:01:19;91973.75;;;18.04;83.43
34506;BME280;20748;42.632;23.198;2022-08-19T05:03:52;91974.25;;;18.10;83.13
34506;BME280;20748;42.632;23.198;2022-08-19T05:06:25;91991.78;;;18.18;82.67
34506;BME280;20748;42.632;23.198;2022-08-19T05:08:57;91986.56;;;18.22;83.57
34506;BME280;20748;42.632;23.198;2022-08-19T05:11:32;91991.22;;;18.29;82.46
34506;BME280;20748;42.632;23.198;2022-08-19T05:14:05;91991.88;;;18.42;81.97
34506;BME280;20748;42.632;23.198;2022-08-19T05:16:39;91985.97;;;18.48;82.13
34506;BME280;20748;42.632;23.198;2022-08-19T05:19:12;91988.81;;;18.59;82.52
34506;BME280;20748;42.632;23.198;2022-08-19T05:22:05;91986.78;;;18.72;81.19
34506;BME280;20748;42.632;23.198;2022-08-19T05:24:55;91987.75;;;18.84;81.45
34506;BME280;20748;42.632;23.198;2022-08-19T05:27:44;91986.44;;;18.94;82.50
34506;BME280;20748;42.632;23.198;2022-08-19T05:30:17;91991.91;;;19.04;82.86
34506;BME280;20748;42.632;23.198;2022-08-19T05:33:06;91981.06;;;19.10;83.31
34506;BME280;20748;42.632;23.198;2022-08-19T05:35:41;91986.56;;;19.21;83.89
34506;BME280;20748;42.632;23.198;2022-08-19T05:38:13;91998.00;;;19.28;83.46
34506;BME280;20748;42.632;23.198;2022-08-19T05:40:46;91992.66;;;19.48;82.74
34506;BME280;20748;42.632;23.198;2022-08-19T05:43:21;91983.09;;;19.67;82.46
34506;BME280;20748;42.632;23.198;2022-08-19T05:45:53;91987.81;;;19.77;82.56
34506;BME280;20748;42.632;23.198;2022-08-19T05:48:26;91986.53;;;19.94;82.69
34506;BME280;20748;42.632;23.198;2022-08-19T05:51:03;91978.78;;;20.09;81.31
34506;BME280;20748;42.632;23.198;2022-08-19T05:53:37;91985.13;;;20.28;80.71
34506;BME280;20748;42.632;23.198;2022-08-19T05:56:13;91981.53;;;20.47;79.91
34506;BME280;20748;42.632;23.198;2022-08-19T05:58:47;91981.03;;;20.68;78.43
34506;BME280;20748;42.632;23.198;2022-08-19T06:01:20;91982.03;;;20.87;77.45
34506;BME280;20748;42.632;23.198;2022-08-19T06:03:53;91990.19;;;21.09;75.35
34506;BME280;20748;42.632;23.198;2022-08-19T06:06:26;91990.38;;;21.27;74.91
34506;BME280;20748;42.632;23.198;2022-08-19T06:08:59;91988.63;;;21.45;73.03
34506;BME280;20748;42.632;23.198;2022-08-19T06:11:34;91988.44;;;21.69;69.42
34506;BME280;20748;42.632;23.198;2022-08-19T06:14:09;91988.59;;;21.87;68.32
34506;BME280;20748;42.632;23.198;2022-08-19T06:16:48;91992.91;;;22.06;65.15
34506;BME280;20748;42.632;23.198;2022-08-19T06:19:23;91990.38;;;22.28;62.29
34506;BME280;20748;42.632;23.198;2022-08-19T06:21:58;91985.56;;;22.52;61.53
34506;BME280;20748;42.632;23.198;2022-08-19T06:24:31;91992.09;;;22.73;61.20
34506;BME280;20748;42.632;23.198;2022-08-19T06:27:04;91988.75;;;22.98;60.92
34506;BME280;20748;42.632;23.198;2022-08-19T06:29:38;91994.91;;;23.24;60.30
34506;BME280;20748;42.632;23.198;2022-08-19T06:32:10;91993.78;;;23.43;59.55
34506;BME280;20748;42.632;23.198;2022-08-19T06:34:43;91997.25;;;23.65;60.17
34506;BME280;20748;42.632;23.198;2022-08-19T06:37:16;91986.97;;;23.85;56.62
34506;BME280;20748;42.632;23.198;2022-08-19T06:39:49;91988.47;;;24.12;57.83
34506;BME280;20748;42.632;23.198;2022-08-19T06:42:22;91989.97;;;24.35;56.01
34506;BME280;20748;42.632;23.198;2022-08-19T06:44:55;91990.25;;;24.55;52.24
34506;BME280;20748;42.632;23.198;2022-08-19T06:47:28;91986.38;;;24.74;52.00
34506;BME280;20748;42.632;23.198;2022-08-19T06:50:01;91990.13;;;24.95;51.56
34506;BME280;20748;42.632;23.198;2022-08-19T06:52:35;91984.66;;;25.17;52.41
34506;BME280;20748;42.632;23.198;2022-08-19T06:55:09;91983.44;;;25.32;50.64
34506;BME280;20748;42.632;23.198;2022-08-19T06:57:42;91989.03;;;25.56;50.31
34506;BME280;20748;42.632;23.198;2022-08-19T07:00:17;91999.53;;;25.82;50.28
34506;BME280;20748;42.632;23.198;2022-08-19T07:02:50;91999.72;;;26.02;50.75
34506;BME280;20748;42.632;23.198;2022-08-19T07:05:29;92006.44;;;26.25;49.47
34506;BME280;20748;42.632;23.198;2022-08-19T07:08:02;91993.53;;;26.51;49.62
34506;BME280;20748;42.632;23.198;2022-08-19T07:10:36;91996.78;;;26.70;47.76
34506;BME280;20748;42.632;23.198;2022-08-19T07:13:14;91998.84;;;26.93;47.79
34506;BME280;20748;42.632;23.198;2022-08-19T07:15:47;92003.50;;;27.16;46.70
34506;BME280;20748;42.632;23.198;2022-08-19T07:18:21;92001.28;;;27.39;46.76
34506;BME280;20748;42.632;23.198;2022-08-19T07:21:03;91995.97;;;27.63;44.80
34506;BME280;20748;42.632;23.198;2022-08-19T07:23:35;92005.66;;;27.80;43.78
34506;BME280;20748;42.632;23.198;2022-08-19T07:26:15;92007.25;;;28.01;44.12
34506;BME280;20748;42.632;23.198;2022-08-19T07:28:48;92003.53;;;28.19;42.94
34506;BME280;20748;42.632;23.198;2022-08-19T07:31:26;92000.94;;;28.36;42.88
34506;BME280;20748;42.632;23.198;2022-08-19T07:34:04;91998.81;;;28.47;41.26
34506;BME280;20748;42.632;23.198;2022-08-19T07:36:40;91995.53;;;28.60;41.83
34506;BME280;20748;42.632;23.198;2022-08-19T07:39:16;92002.13;;;28.75;41.40
34506;BME280;20748;42.632;23.198;2022-08-19T07:41:48;92006.81;;;28.91;40.79
34506;BME280;20748;42.632;23.198;2022-08-19T07:44:22;92006.47;;;29.10;40.21
34506;BME280;20748;42.632;23.198;2022-08-19T07:46:57;92007.50;;;29.16;40.29
34506;BME280;20748;42.632;23.198;2022-08-19T07:49:30;92002.47;;;29.18;39.40
34506;BME280;20748;42.632;23.198;2022-08-19T07:52:06;92001.16;;;29.43;39.29
34506;BME280;20748;42.632;23.198;2022-08-19T07:54:39;92009.88;;;29.67;38.70
34506;BME280;20748;42.632;23.198;2022-08-19T07:57:12;92002.13;;;29.86;37.92
34506;BME280;20748;42.632;23.198;2022-08-19T07:59:45;92011.69;;;30.04;37.84
34506;BME280;20748;42.632;23.198;2022-08-19T08:02:17;92009.28;;;30.26;36.66
34506;BME280;20748;42.632;23.198;2022-08-19T08:04:50;92008.81;;;30.44;36.43
34506;BME280;20748;42.632;23.198;2022-08-19T08:07:41;92007.34;;;30.56;37.33
34506;BME280;20748;42.632;23.198;2022-08-19T08:10:32;92005.38;;;30.73;35.95
34506;BME280;20748;42.632;23.198;2022-08-19T08:13:05;92001.50;;;30.45;34.58
34506;BME280;20748;42.632;23.198;2022-08-19T08:15:41;92005.38;;;30.44;35.15
34506;BME280;20748;42.632;23.198;2022-08-19T08:18:16;92000.50;;;30.38;34.40
34506;BME280;20748;42.632;23.198;2022-08-19T08:20:48;91999.69;;;30.54;34.51
34506;BME280;20748;42.632;23.198;2022-08-19T08:23:22;91995.16;;;30.51;33.38
34506;BME280;20748;42.632;23.198;2022-08-19T08:25:57;91992.50;;;30.64;32.93
34506;BME280;20748;42.632;23.198;2022-08-19T08:28:30;91988.59;;;30.82;32.77
34506;BME280;20748;42.632;23.198;2022-08-19T08:31:03;91987.22;;;30.90;33.17
34506;BME280;20748;42.632;23.198;2022-08-19T08:33:41;91990.59;;;31.07;33.21
34506;BME280;20748;42.632;23.198;2022-08-19T08:36:14;91989.25;;;31.29;33.14
34506;BME280;20748;42.632;23.198;2022-08-19T08:38:47;91991.28;;;31.38;31.12
34506;BME280;20748;42.632;23.198;2022-08-19T08:41:25;91988.91;;;31.53;31.33
34506;BME280;20748;42.632;23.198;2022-08-19T08:44:00;91992.47;;;31.63;31.63
34506;BME280;20748;42.632;23.198;2022-08-19T08:46:38;91985.38;;;31.56;30.75
34506;BME280;20748;42.632;23.198;2022-08-19T08:49:20;91993.41;;;31.82;31.40
34506;BME280;20748;42.632;23.198;2022-08-19T08:52:00;91993.94;;;32.03;30.50
34506;BME280;20748;42.632;23.198;2022-08-19T08:54:38;91986.44;;;31.84;30.92
34506;BME280;20748;42.632;23.198;2022-08-19T08:57:14;91981.13;;;31.94;30.36
34506;BME280;20748;42.632;23.198;2022-08-19T08:59:48;91983.81;;;32.29;31.57
34506;BME280;20748;42.632;23.198;2022-08-19T09:02:25;91980.72;;;32.53;30.55
34506;BME280;20748;42.632;23.198;2022-08-19T09:04:58;91981.50;;;32.53;29.15
34506;BME280;20748;42.632;23.198;2022-08-19T09:07:41;91979.56;;;32.76;29.90
34506;BME280;20748;42.632;23.198;2022-08-19T09:10:23;91978.34;;;33.00;29.76
34506;BME280;20748;42.632;23.198;2022-08-19T09:13:07;91977.53;;;32.90;29.72
34506;BME280;20748;42.632;23.198;2022-08-19T09:15:44;91979.34;;;32.93;28.81
34506;BME280;20748;42.632;23.198;2022-08-19T09:18:18;91974.69;;;32.93;28.51
34506;BME280;20748;42.632;23.198;2022-08-19T09:20:52;91982.69;;;33.29;28.67
34506;BME280;20748;42.632;23.198;2022-08-19T09:23:25;91972.16;;;33.53;28.41
34506;BME280;20748;42.632;23.198;2022-08-19T09:25:59;91974.47;;;33.83;28.73
34506;BME280;20748;42.632;23.198;2022-08-19T09:28:31;91972.47;;;33.55;26.90
34506;BME280;20748;42.632;23.198;2022-08-19T09:31:04;91966.31;;;33.64;27.82
34506;BME280;20748;42.632;23.198;2022-08-19T09:33:36;91969.38;;;33.75;27.87
34506;BME280;20748;42.632;23.198;2022-08-19T09:36:12;91966.31;;;34.05;26.73
34506;BME280;20748;42.632;23.198;2022-08-19T09:38:55;91957.72;;;34.16;27.78
34506;BME280;20748;42.632;23.198;2022-08-19T09:41:30;91963.91;;;34.17;26.90
34506;BME280;20748;42.632;23.198;2022-08-19T09:44:05;91960.00;;;34.18;26.29
34506;BME280;20748;42.632;23.198;2022-08-19T09:46:38;91959.38;;;34.32;26.59
34506;BME280;20748;42.632;23.198;2022-08-19T09:49:10;91959.09;;;34.39;26.91
34506;BME280;20748;42.632;23.198;2022-08-19T09:51:45;91964.94;;;34.66;25.75
34506;BME280;20748;42.632;23.198;2022-08-19T09:54:23;91964.34;;;34.71;26.17
34506;BME280;20748;42.632;23.198;2022-08-19T09:56:58;91958.19;;;34.71;26.04
34506;BME280;20748;42.632;23.198;2022-08-19T09:59:35;91957.81;;;34.97;26.74
34506;BME280;20748;42.632;23.198;2022-08-19T10:02:07;91948.31;;;35.20;24.67
34506;BME280;20748;42.632;23.198;2022-08-19T10:04:42;91947.47;;;35.38;25.03
34506;BME280;20748;42.632;23.198;2022-08-19T10:07:33;91942.16;;;35.01;24.06
34506;BME280;20748;42.632;23.198;2022-08-19T10:10:08;91940.59;;;35.28;23.67
34506;BME280;20748;42.632;23.198;2022-08-19T10:12:42;91935.63;;;35.26;23.70
34506;BME280;20748;42.632;23.198;2022-08-19T10:15:20;91935.09;;;35.03;24.06
34506;BME280;20748;42.632;23.198;2022-08-19T10:18:01;91939.03;;;34.93;24.21
34506;BME280;20748;42.632;23.198;2022-08-19T10:20:33;91944.56;;;35.17;23.73
34506;BME280;20748;42.632;23.198;2022-08-19T10:23:07;91937.63;;;35.16;22.54
34506;BME280;20748;42.632;23.198;2022-08-19T10:25:39;91937.69;;;34.88;24.98
34506;BME280;20748;42.632;23.198;2022-08-19T10:28:15;91932.72;;;34.87;23.84
34506;BME280;20748;42.632;23.198;2022-08-19T10:30:51;91934.91;;;35.07;24.22
34506;BME280;20748;42.632;23.198;2022-08-19T10:33:24;91923.59;;;35.18;23.64
34506;BME280;20748;42.632;23.198;2022-08-19T10:36:19;91926.78;;;35.16;24.17
34506;BME280;20748;42.632;23.198;2022-08-19T10:38:53;91929.72;;;34.75;22.26
34506;BME280;20748;42.632;23.198;2022-08-19T10:41:32;91932.44;;;34.85;22.77
34506;BME280;20748;42.632;23.198;2022-08-19T10:44:08;91926.47;;;35.14;23.09
34506;BME280;20748;42.632;23.198;2022-08-19T10:46:45;91921.13;;;35.39;22.72
34506;BME280;20748;42.632;23.198;2022-08-19T10:49:20;91931.53;;;35.31;21.03
34506;BME280;20748;42.632;23.198;2022-08-19T10:51:54;91921.50;;;35.22;22.01
34506;BME280;20748;42.632;23.198;2022-08-19T10:54:52;91924.72;;;35.45;22.33
34506;BME280;20748;42.632;23.198;2022-08-19T10:57:42;91929.88;;;35.67;22.16
34506;BME280;20748;42.632;23.198;2022-08-19T11:00:34;91925.22;;;35.58;21.75
34506;BME280;20748;42.632;23.198;2022-08-19T11:03:09;91920.66;;;35.40;22.29
34506;BME280;20748;42.632;23.198;2022-08-19T11:05:41;91921.91;;;35.64;21.80
34506;BME280;20748;42.632;23.198;2022-08-19T11:08:14;91917.13;;;35.83;21.73
34506;BME280;20748;42.632;23.198;2022-08-19T11:10:55;91913.44;;;35.71;22.66
34506;BME280;20748;42.632;23.198;2022-08-19T11:13:34;91911.16;;;35.45;22.28
34506;BME280;20748;42.632;23.198;2022-08-19T11:16:11;91914.44;;;35.49;22.45
34506;BME280;20748;42.632;23.198;2022-08-19T11:18:46;91912.81;;;35.76;22.82
34506;BME280;20748;42.632;23.198;2022-08-19T11:21:22;91917.41;;;35.60;22.35
34506;BME280;20748;42.632;23.198;2022-08-19T11:23:56;91919.69;;;36.11;22.23
34506;BME280;20748;42.632;23.198;2022-08-19T11:26:30;91909.03;;;35.73;21.82
34506;BME280;20748;42.632;23.198;2022-08-19T11:29:04;91910.75;;;36.10;22.08
34506;BME280;20748;42.632;23.198;2022-08-19T11:31:40;91906.56;;;35.85;23.09
34506;BME280;20748;42.632;23.198;2022-08-19T11:34:16;91899.03;;;36.04;22.58
34506;BME280;20748;42.632;23.198;2022-08-19T11:36:50;91906.31;;;36.37;22.55
34506;BME280;20748;42.632;23.198;2022-08-19T11:39:23;91900.94;;;36.52;22.00
34506;BME280;20748;42.632;23.198;2022-08-19T11:41:58;91895.53;;;36.83;21.48
34506;BME280;20748;42.632;23.198;2022-08-19T11:44:30;91889.78;;;36.50;21.89
34506;BME280;20748;42.632;23.198;2022-08-19T11:47:04;91895.22;;;36.80;20.91
34506;BME280;20748;42.632;23.198;2022-08-19T11:49:40;91893.72;;;36.79;22.18
34506;BME280;20748;42.632;23.198;2022-08-19T11:52:14;91891.19;;;36.46;22.07
34506;BME280;20748;42.632;23.198;2022-08-19T11:54:46;91896.22;;;36.38;23.15
34506;BME280;20748;42.632;23.198;2022-08-19T11:57:19;91886.84;;;36.39;22.60
34506;BME280;20748;42.632;23.198;2022-08-19T11:59:51;91891.06;;;36.40;22.85
34506;BME280;20748;42.632;23.198;2022-08-19T12:02:25;91888.44;;;36.31;23.44
34506;BME280;20748;42.632;23.198;2022-08-19T12:04:58;91883.69;;;36.55;23.17
34506;BME280;20748;42.632;23.198;2022-08-19T12:07:30;91876.63;;;36.34;22.71
34506;BME280;20748;42.632;23.198;2022-08-19T12:10:05;91877.97;;;36.23;23.16
34506;BME280;20748;42.632;23.198;2022-08-19T12:12:39;91871.13;;;36.58;23.53
34506;BME280;20748;42.632;23.198;2022-08-19T12:15:14;91874.97;;;36.81;21.99
34506;BME280;20748;42.632;23.198;2022-08-19T12:17:47;91863.25;;;37.05;21.73
34506;BME280;20748;42.632;23.198;2022-08-19T12:20:20;91862.25;;;36.73;23.36
34506;BME280;20748;42.632;23.198;2022-08-19T12:22:52;91860.91;;;36.53;22.47
34506;BME280;20748;42.632;23.198;2022-08-19T12:25:25;91858.53;;;36.70;22.17
34506;BME280;20748;42.632;23.198;2022-08-19T12:27:57;91852.47;;;36.96;23.43
34506;BME280;20748;42.632;23.198;2022-08-19T12:30:30;91856.44;;;37.10;22.42
34506;BME280;20748;42.632;23.198;2022-08-19T12:33:04;91854.75;;;36.83;23.18
34506;BME280;20748;42.632;23.198;2022-08-19T12:35:39;91852.22;;;36.94;22.56
34506;BME280;20748;42.632;23.198;2022-08-19T12:38:17;91849.19;;;36.92;22.69
34506;BME280;20748;42.632;23.198;2022-08-19T12:40:50;91848.94;;;36.90;22.26
34506;BME280;20748;42.632;23.198;2022-08-19T12:43:25;91845.38;;;36.84;22.21
34506;BME280;20748;42.632;23.198;2022-08-19T12:45:58;91837.66;;;36.97;22.21
34506;BME280;20748;42.632;23.198;2022-08-19T12:48:32;91840.88;;;36.80;23.84
34506;BME280;20748;42.632;23.198;2022-08-19T12:51:08;91835.84;;;36.73;22.88
34506;BME280;20748;42.632;23.198;2022-08-19T12:53:42;91816.63;;;36.47;22.90
34506;BME280;20748;42.632;23.198;2022-08-19T12:56:15;91827.75;;;36.34;23.03
34506;BME280;20748;42.632;23.198;2022-08-19T12:58:51;91827.16;;;35.60;23.52
34506;BME280;20748;42.632;23.198;2022-08-19T13:01:24;91823.44;;;35.48;23.72
34506;BME280;20748;42.632;23.198;2022-08-19T13:03:57;91828.53;;;35.55;23.66
34506;BME280;20748;42.632;23.198;2022-08-19T13:06:30;91820.16;;;35.68;23.30
34506;BME280;20748;42.632;23.198;2022-08-19T13:09:03;91813.91;;;35.77;24.04
34506;BME280;20748;42.632;23.198;2022-08-19T13:11:36;91813.81;;;35.71;24.01
34506;BME280;20748;42.632;23.198;2022-08-19T13:14:08;91807.75;;;35.77;23.45
34506;BME280;20748;42.632;23.198;2022-08-19T13:16:42;91807.94;;;35.73;23.60
34506;BME280;20748;42.632;23.198;2022-08-19T13:19:16;91808.44;;;35.38;24.47
34506;BME280;20748;42.632;23.198;2022-08-19T13:21:52;91800.09;;;35.26;24.72
34506;BME280;20748;42.632;23.198;2022-08-19T13:24:31;91800.63;;;35.06;24.09
34506;BME280;20748;42.632;23.198;2022-08-19T13:27:05;91798.38;;;35.04;24.99
34506;BME280;20748;42.632;23.198;2022-08-19T13:29:39;91796.41;;;35.05;25.81
34506;BME280;20748;42.632;23.198;2022-08-19T13:32:30;91805.66;;;34.89;25.53